Time;durP1;ratioP1;P1;durP2;ratioP2;P2;SDS_P1;SDS_P2;PMS_P1;PMS_P2;Temp;Humidity;BMP_temperature;BMP_pressure;BME280_temperature;BME280_humidity;BME280_pressure;Samples;Min_cycle;Max_cycle;Signal;HPM_P1;HPM_P2
2023/07/05 00:00:51;;;;;;;9.38;4.93;;;;;;;;;;5032661;28;20021;-51
2023/07/05 00:03:17;;;;;;;5.45;3.53;;;21.80;99.90;;;;;;5032930;28;20028;-50
2023/07/05 00:05:43;;;;;;;9.45;3.58;;;21.70;99.90;;;;;;5032823;28;20025;-50
2023/07/05 00:08:09;;;;;;;5.57;3.53;;;21.80;99.90;;;;;;5033767;28;20038;-50
2023/07/05 00:10:35;;;;;;;5.95;3.45;;;22.00;99.90;;;;;;5032953;28;20040;-50
2023/07/05 00:13:01;;;;;;;5.97;3.47;;;21.80;99.90;;;;;;5032597;28;20481;-50
2023/07/05 00:15:30;;;;;;;7.25;3.65;;;22.00;99.90;;;;;;5032672;28;20048;-50
2023/07/05 00:17:56;;;;;;;6.28;3.78;;;21.80;99.90;;;;;;5033228;28;20072;-50
2023/07/05 00:20:23;;;;;;;7.68;3.70;;;21.90;99.90;;;;;;5032033;28;20036;-51
2023/07/05 00:22:49;;;;;;;6.10;3.30;;;21.90;99.90;;;;;;5032082;28;20439;-51
2023/07/05 00:25:15;;;;;;;6.82;3.85;;;22.00;99.90;;;;;;5032253;28;20033;-52
2023/07/05 00:27:41;;;;;;;7.07;3.20;;;21.90;99.90;;;;;;5025318;28;20091;-50
2023/07/05 00:30:07;;;;;;;5.88;3.83;;;22.00;99.90;;;;;;5031591;28;20041;-50
2023/07/05 00:32:33;;;;;;;5.93;3.58;;;;;;;;;;5046475;28;20041;-50
2023/07/05 00:34:59;;;;;;;6.13;3.22;;;21.60;99.90;;;;;;5031157;28;20067;-50
2023/07/05 00:37:25;;;;;;;5.63;3.30;;;21.60;99.90;;;;;;5030287;28;20037;-50
2023/07/05 00:39:51;;;;;;;6.50;3.20;;;21.60;99.90;;;;;;5029859;28;20139;-51
2023/07/05 00:42:17;;;;;;;5.13;2.80;;;21.60;99.90;;;;;;5043556;28;20111;-50
2023/07/05 00:45:08;;;;;;;3.83;2.60;;;21.70;99.90;;;;;;5047553;28;20579;-50
2023/07/05 00:47:36;;;;;;;5.50;3.13;;;21.70;99.90;;;;;;5032387;28;20544;-50
2023/07/05 00:50:14;;;;;;;5.03;3.40;;;21.80;99.90;;;;;;5031822;28;20468;-50
2023/07/05 00:52:40;;;;;;;4.93;3.15;;;21.70;99.90;;;;;;5047156;28;20041;-50
2023/07/05 00:55:06;;;;;;;5.15;3.00;;;21.60;99.90;;;;;;5028041;28;20116;-50
2023/07/05 00:57:36;;;;;;;4.47;2.90;;;21.50;99.90;;;;;;5046555;28;20095;-51
2023/07/05 01:00:09;;;;;;;6.00;3.60;;;21.50;99.90;;;;;;5030571;28;20029;-51
2023/07/05 01:02:39;;;;;;;4.88;2.90;;;21.60;99.90;;;;;;5046610;28;20087;-50
2023/07/05 01:05:06;;;;;;;4.25;2.95;;;;;;;;;;5032217;28;20350;-50
2023/07/05 01:07:32;;;;;;;5.22;2.63;;;21.50;99.90;;;;;;5028599;28;20026;-50
2023/07/05 01:09:58;;;;;;;5.40;2.92;;;21.50;99.90;;;;;;5031398;28;20472;-50
2023/07/05 01:12:42;;;;;;;4.25;2.65;;;21.60;99.90;;;;;;5028542;28;20069;-50
2023/07/05 01:15:15;;;;;;;6.47;3.10;;;21.60;99.90;;;;;;5032400;28;20100;-50
2023/07/05 01:18:03;;;;;;;6.43;3.47;;;21.60;99.90;;;;;;5031640;28;20151;-50
2023/07/05 01:20:50;;;;;;;5.95;2.97;;;21.60;99.90;;;;;;5031855;28;20068;-50
2023/07/05 01:23:34;;;;;;;5.82;3.20;;;21.50;99.90;;;;;;5031153;28;20168;-50
2023/07/05 01:26:21;;;;;;;5.93;3.35;;;21.50;99.90;;;;;;5031465;28;20528;-50
2023/07/05 01:29:15;;;;;;;4.47;2.90;;;21.50;99.90;;;;;;5027539;28;20026;-51
2023/07/05 01:31:50;;;;;;;5.28;2.72;;;21.60;99.90;;;;;;5063308;28;20117;-50
2023/07/05 01:34:42;;;;;;;4.78;2.83;;;21.70;99.90;;;;;;5028575;28;20525;-50
2023/07/05 01:37:20;;;;;;;7.75;3.05;;;21.70;99.90;;;;;;5008536;28;20069;-51
2023/07/05 01:39:46;;;;;;;5.55;3.60;;;21.70;99.90;;;;;;5008872;28;20121;-50
2023/07/05 01:42:12;;;;;;;6.38;3.03;;;21.70;99.90;;;;;;5003891;28;20172;-51
2023/07/05 01:44:38;;;;;;;6.25;3.08;;;21.80;99.90;;;;;;5006888;28;20078;-50
2023/07/05 01:47:16;;;;;;;5.07;2.72;;;21.80;99.90;;;;;;5010583;28;20100;-51
2023/07/05 01:49:48;;;;;;;4.55;3.10;;;21.80;99.90;;;;;;5012629;28;20116;-51
2023/07/05 01:52:27;;;;;;;6.25;2.92;;;21.80;99.90;;;;;;5011190;28;20106;-50
2023/07/05 01:55:05;;;;;;;5.55;3.13;;;21.80;99.90;;;;;;5011796;28;20153;-50
2023/07/05 01:57:39;;;;;;;4.55;2.88;;;21.80;99.90;;;;;;5013826;28;20026;-52
2023/07/05 02:00:15;;;;;;;7.80;3.22;;;21.90;99.90;;;;;;5012453;28;20034;-50
2023/07/05 02:02:49;;;;;;;4.97;3.13;;;21.80;99.90;;;;;;5013677;28;20600;-50
2023/07/05 02:05:15;;;;;;;3.80;2.80;;;21.90;99.90;;;;;;5011668;28;20048;-51
2023/07/05 02:07:44;;;;;;;4.55;2.65;;;21.90;99.90;;;;;;5014002;28;20034;-50
2023/07/05 02:10:10;;;;;;;4.20;2.90;;;21.80;99.90;;;;;;5010650;28;20121;-50
2023/07/05 02:12:36;;;;;;;4.40;2.80;;;21.70;99.90;;;;;;5010343;28;20038;-50
2023/07/05 02:15:02;;;;;;;5.43;3.22;;;;;;;;;;5032094;28;20052;-49
2023/07/05 02:17:28;;;;;;;6.28;3.65;;;21.40;99.90;;;;;;5035305;28;20033;-50
2023/07/05 02:19:54;;;;;;;6.30;3.53;;;21.40;99.90;;;;;;5034991;28;20085;-50
2023/07/05 02:22:20;;;;;;;5.05;2.60;;;21.40;99.90;;;;;;5031776;28;20042;-50
2023/07/05 02:24:50;;;;;;;5.15;3.10;;;21.50;99.90;;;;;;5066268;28;20045;-50
2023/07/05 02:27:16;;;;;;;5.30;3.28;;;21.50;99.90;;;;;;5034639;28;20036;-51
2023/07/05 02:29:42;;;;;;;5.25;3.10;;;21.60;99.90;;;;;;5034922;28;20029;-50
2023/07/05 02:32:08;;;;;;;5.97;3.40;;;21.70;99.90;;;;;;5035633;28;20037;-50
2023/07/05 02:34:40;;;;;;;5.22;3.00;;;21.70;99.90;;;;;;5000216;28;20050;-50
2023/07/05 02:37:06;;;;;;;4.93;2.80;;;21.80;99.90;;;;;;5029630;28;20083;-50
2023/07/05 02:39:32;;;;;;;5.97;3.50;;;21.70;99.90;;;;;;5034288;28;20477;-50
2023/07/05 02:41:57;;;;;;;8.35;3.45;;;21.60;99.90;;;;;;5034891;28;20039;-51
2023/07/05 02:44:23;;;;;;;3.90;2.70;;;21.50;99.90;;;;;;5034794;28;20072;-50
2023/07/05 02:46:49;;;;;;;8.65;3.50;;;21.40;99.90;;;;;;5034735;28;20029;-50
2023/07/05 02:49:15;;;;;;;4.00;2.58;;;21.50;99.90;;;;;;5034622;28;20073;-50
2023/07/05 02:51:41;;;;;;;5.05;2.92;;;21.60;99.90;;;;;;5033892;28;20588;-50
2023/07/05 02:54:08;;;;;;;4.93;3.08;;;21.60;99.90;;;;;;5034475;28;20061;-50
2023/07/05 02:56:34;;;;;;;5.30;3.42;;;21.70;99.90;;;;;;5034132;28;20465;-52
2023/07/05 02:58:59;;;;;;;6.85;3.50;;;21.70;99.90;;;;;;5031298;28;20041;-50
2023/07/05 03:01:25;;;;;;;7.43;3.40;;;21.70;99.90;;;;;;5029487;28;20029;-51
2023/07/05 03:03:51;;;;;;;6.43;3.13;;;21.60;99.90;;;;;;5033989;28;20026;-50
2023/07/05 03:06:17;;;;;;;5.18;3.00;;;21.60;99.90;;;;;;5033778;28;20029;-50
2023/07/05 03:08:42;;;;;;;3.70;2.70;;;21.60;99.90;;;;;;5033950;28;20025;-50
2023/07/05 03:11:08;;;;;;;6.25;3.08;;;21.60;99.90;;;;;;5046714;28;20037;-50
2023/07/05 03:13:34;;;;;;;10.48;3.58;;;21.60;99.90;;;;;;5032610;28;20044;-50
2023/07/05 03:16:00;;;;;;;6.00;3.08;;;21.60;99.90;;;;;;5033562;28;20041;-50
2023/07/05 03:18:27;;;;;;;5.18;3.42;;;21.60;99.90;;;;;;5033326;28;20033;-50
2023/07/05 03:20:53;;;;;;;5.10;3.33;;;21.60;99.90;;;;;;5034122;28;20108;-52
2023/07/05 03:23:20;;;;;;;5.07;3.38;;;21.70;99.90;;;;;;5032775;28;20049;-50
2023/07/05 03:26:00;;;;;;;5.13;3.40;;;21.60;99.90;;;;;;5033753;28;20056;-50
2023/07/05 03:28:29;;;;;;;7.25;3.97;;;21.70;99.90;;;;;;5031196;28;20032;-50
2023/07/05 03:30:59;;;;;;;5.95;3.45;;;21.70;99.90;;;;;;5033597;28;20037;-51
2023/07/05 03:33:25;;;;;;;5.05;3.42;;;21.70;99.90;;;;;;5034328;28;20075;-50
2023/07/05 03:35:59;;;;;;;4.95;2.92;;;21.70;99.90;;;;;;5033314;28;20450;-50
2023/07/05 03:38:27;;;;;;;4.78;3.35;;;21.70;99.90;;;;;;5033672;28;20030;-51
2023/07/05 03:41:04;;;;;;;5.20;3.40;;;21.70;99.90;;;;;;5034083;28;20039;-50
2023/07/05 03:43:35;;;;;;;5.38;3.28;;;21.80;99.90;;;;;;5045980;28;20037;-52
2023/07/05 03:46:03;;;;;;;5.90;3.28;;;21.80;99.90;;;;;;5037788;28;20051;-50
2023/07/05 03:48:30;;;;;;;8.13;3.83;;;21.80;99.90;;;;;;5033565;28;20026;-50
2023/07/05 03:50:58;;;;;;;5.50;3.08;;;21.80;99.90;;;;;;5032928;28;20037;-50
2023/07/05 03:53:24;;;;;;;4.78;3.47;;;21.90;99.90;;;;;;5033451;28;20055;-50
2023/07/05 03:55:50;;;;;;;5.45;3.38;;;21.80;99.90;;;;;;5031476;28;20041;-50
2023/07/05 03:58:16;;;;;;;9.30;3.35;;;21.90;99.90;;;;;;5033125;28;20033;-50
2023/07/05 04:00:42;;;;;;;7.05;3.50;;;21.90;99.90;;;;;;5029605;28;20056;-50
2023/07/05 04:03:08;;;;;;;7.15;3.95;;;21.90;99.90;;;;;;5033185;28;20025;-50
2023/07/05 04:05:34;;;;;;;5.13;2.85;;;22.00;99.90;;;;;;5031809;28;20354;-50
2023/07/05 04:08:00;;;;;;;4.63;2.97;;;22.00;99.90;;;;;;5033689;28;20056;-50
2023/07/05 04:10:26;;;;;;;6.55;3.40;;;22.10;99.90;;;;;;5033001;28;20104;-50
2023/07/05 04:12:52;;;;;;;5.85;3.42;;;22.10;99.90;;;;;;5033179;28;20457;-50
2023/07/05 04:15:19;;;;;;;5.35;3.40;;;22.20;99.90;;;;;;5032339;28;20105;-50
2023/07/05 04:17:45;;;;;;;6.70;3.10;;;22.10;99.90;;;;;;5033231;28;20026;-51
2023/07/05 04:20:11;;;;;;;4.57;3.10;;;22.10;99.90;;;;;;5032776;28;21653;-50
2023/07/05 04:22:40;;;;;;;6.80;3.78;;;22.20;99.90;;;;;;5017990;28;20128;-51
2023/07/05 04:25:07;;;;;;;5.32;3.55;;;22.20;99.90;;;;;;5032653;28;20027;-52
2023/07/05 04:27:33;;;;;;;6.38;3.50;;;22.30;99.90;;;;;;5032949;28;20180;-51
2023/07/05 04:29:58;;;;;;;4.80;3.15;;;22.30;99.90;;;;;;5032581;28;20101;-51
2023/07/05 04:32:24;;;;;;;6.72;3.63;;;22.40;99.90;;;;;;5032487;28;20026;-51
2023/07/05 04:34:51;;;;;;;5.22;3.15;;;;;;;;;;5032290;28;20037;-51
2023/07/05 04:37:16;;;;;;;4.90;3.20;;;22.60;99.90;;;;;;5047775;28;20045;-51
2023/07/05 04:39:42;;;;;;;6.88;3.95;;;22.50;99.90;;;;;;5032255;28;20381;-50
2023/07/05 04:42:08;;;;;;;5.63;3.35;;;22.50;99.90;;;;;;5031072;28;20100;-50
2023/07/05 04:44:33;;;;;;;6.32;3.80;;;22.50;99.90;;;;;;5032586;28;20061;-51
2023/07/05 04:46:59;;;;;;;7.32;3.80;;;22.60;99.90;;;;;;5031257;28;20049;-52
2023/07/05 04:49:25;;;;;;;5.75;3.65;;;22.70;99.90;;;;;;5031820;28;20101;-51
2023/07/05 04:51:51;;;;;;;7.20;4.53;;;22.90;99.90;;;;;;5032003;28;20516;-50
2023/07/05 04:54:17;;;;;;;6.25;3.80;;;22.90;99.90;;;;;;5032058;28;20388;-51
2023/07/05 04:56:42;;;;;;;5.57;3.35;;;23.00;99.90;;;;;;5032569;28;20025;-50
2023/07/05 04:59:10;;;;;;;7.13;3.53;;;23.00;99.90;;;;;;5030896;28;20030;-51
2023/07/05 05:01:36;;;;;;;8.10;3.70;;;23.00;99.90;;;;;;5026054;28;20041;-51
2023/07/05 05:04:02;;;;;;;7.93;4.07;;;22.80;99.90;;;;;;5029742;28;20044;-51
2023/07/05 05:06:28;;;;;;;5.28;3.42;;;22.70;99.90;;;;;;5032630;28;20021;-50
2023/07/05 05:08:54;;;;;;;6.18;4.13;;;22.80;99.90;;;;;;5031923;28;20026;-52
2023/07/05 05:11:20;;;;;;;6.00;3.92;;;23.10;99.90;;;;;;5026747;28;20444;-51
2023/07/05 05:13:45;;;;;;;5.82;3.72;;;23.20;99.90;;;;;;5031702;28;20026;-51
2023/07/05 05:16:11;;;;;;;7.68;3.97;;;23.20;99.90;;;;;;5032112;28;20075;-52
2023/07/05 05:18:37;;;;;;;8.05;4.20;;;23.40;99.90;;;;;;5032161;28;20140;-51
2023/07/05 05:21:03;;;;;;;5.05;3.33;;;23.40;99.90;;;;;;5031121;28;20029;-51
2023/07/05 05:23:29;;;;;;;7.40;4.22;;;23.50;99.90;;;;;;5030366;28;20049;-52
2023/07/05 05:25:56;;;;;;;7.22;4.22;;;23.40;99.90;;;;;;5028861;28;20075;-52
2023/07/05 05:28:22;;;;;;;7.35;4.10;;;23.40;99.90;;;;;;5031789;28;20033;-51
2023/07/05 05:30:48;;;;;;;5.72;4.03;;;23.60;99.90;;;;;;5029470;28;20505;-53
2023/07/05 05:33:16;;;;;;;5.75;3.88;;;23.60;99.90;;;;;;5031618;28;20064;-51
2023/07/05 05:35:49;;;;;;;6.50;4.00;;;23.60;99.90;;;;;;5031524;28;20045;-51
2023/07/05 05:38:17;;;;;;;6.00;3.80;;;23.60;99.90;;;;;;5032448;28;20415;-51
2023/07/05 05:40:43;;;;;;;5.05;3.38;;;23.60;99.90;;;;;;5031338;28;20084;-51
2023/07/05 05:43:08;;;;;;;4.18;2.95;;;23.60;99.90;;;;;;5031195;28;20061;-51
2023/07/05 05:45:34;;;;;;;5.13;3.65;;;23.60;99.90;;;;;;5031237;28;20017;-53
2023/07/05 05:48:00;;;;;;;8.52;4.07;;;23.60;99.90;;;;;;5056486;28;20045;-51
2023/07/05 05:50:26;;;;;;;6.55;3.70;;;23.80;99.90;;;;;;5030270;28;20021;-51
2023/07/05 05:52:51;;;;;;;5.20;2.90;;;23.70;99.90;;;;;;5040997;28;20046;-51
2023/07/05 05:55:19;;;;;;;7.43;3.67;;;23.60;99.90;;;;;;5061210;28;20131;-50
2023/07/05 05:57:45;;;;;;;4.97;3.63;;;23.80;99.90;;;;;;5031576;28;20033;-50
2023/07/05 06:00:11;;;;;;;7.60;3.88;;;24.00;99.90;;;;;;5029473;28;20037;-51
2023/07/05 06:02:38;;;;;;;7.50;3.90;;;24.10;99.90;;;;;;5013728;28;20131;-51
2023/07/05 06:05:04;;;;;;;5.88;3.35;;;24.20;99.90;;;;;;5031047;28;20030;-51
2023/07/05 06:07:30;;;;;;;6.07;3.63;;;24.10;99.90;;;;;;5032206;28;20052;-51
2023/07/05 06:09:56;;;;;;;5.40;2.70;;;24.30;99.90;;;;;;5030981;28;20473;-51
2023/07/05 06:12:22;;;;;;;5.35;3.35;;;24.50;99.90;;;;;;5027862;28;20033;-51
2023/07/05 06:14:47;;;;;;;6.30;3.38;;;24.70;99.90;;;;;;5013529;28;20056;-52
2023/07/05 06:17:13;;;;;;;5.00;2.90;;;24.70;99.90;;;;;;5030814;28;20032;-51
2023/07/05 06:19:39;;;;;;;4.82;3.35;;;24.70;99.90;;;;;;5026535;28;20059;-51
2023/07/05 06:22:05;;;;;;;4.15;2.75;;;24.70;99.90;;;;;;5030593;28;20029;-51
2023/07/05 06:24:34;;;;;;;8.30;3.08;;;24.90;99.90;;;;;;5027532;28;20077;-51
2023/07/05 06:27:00;;;;;;;6.95;3.20;;;;;;;;;;5029540;28;20087;-51
2023/07/05 06:29:26;;;;;;;9.50;3.25;;;25.30;99.90;;;;;;5045877;28;20046;-51
2023/07/05 06:31:52;;;;;;;5.45;3.63;;;25.40;99.90;;;;;;5055934;28;20463;-52
2023/07/05 06:34:18;;;;;;;6.50;3.13;;;25.40;99.90;;;;;;5033228;28;20049;-51
2023/07/05 06:36:44;;;;;;;6.45;3.55;;;;;;;;;;5029200;28;20083;-51
2023/07/05 06:39:10;;;;;;;4.63;3.15;;;;;;;;;;5047236;28;20034;-51
2023/07/05 06:41:36;;;;;;;5.47;3.42;;;;;;;;;;5030429;28;20068;-51
2023/07/05 06:44:02;;;;;;;5.97;3.38;;;26.00;99.90;;;;;;5033213;28;20037;-51
2023/07/05 06:46:28;;;;;;;6.43;3.60;;;26.10;99.90;;;;;;5029414;28;20033;-51
2023/07/05 06:48:53;;;;;;;7.07;3.22;;;26.20;99.90;;;;;;5026363;28;20034;-51
2023/07/05 06:51:19;;;;;;;5.97;3.53;;;26.40;99.90;;;;;;5033322;28;20124;-52
2023/07/05 06:53:45;;;;;;;6.10;3.63;;;26.40;99.90;;;;;;5032273;28;20092;-51
2023/07/05 06:56:11;;;;;;;6.07;3.42;;;26.50;99.90;;;;;;5026731;28;20422;-51
2023/07/05 06:58:37;;;;;;;5.72;3.50;;;26.50;99.90;;;;;;5031266;28;20030;-51
2023/07/05 07:01:03;;;;;;;4.90;3.40;;;26.50;99.90;;;;;;5032604;28;20034;-51
2023/07/05 07:03:29;;;;;;;6.57;3.83;;;26.80;99.90;;;;;;5033890;28;20021;-52
2023/07/05 07:05:57;;;;;;;5.72;3.55;;;26.40;99.90;;;;;;5050049;28;20037;-51
2023/07/05 07:08:28;;;;;;;11.35;3.55;;;26.20;99.90;;;;;;5051195;28;20044;-52
2023/07/05 07:10:54;;;;;;;5.70;3.67;;;26.40;99.90;;;;;;5050585;28;20048;-51
2023/07/05 07:13:19;;;;;;;7.05;3.92;;;26.60;99.90;;;;;;5050602;28;20288;-50
2023/07/05 07:15:45;;;;;;;6.55;3.55;;;26.70;99.90;;;;;;5044071;28;20064;-51
2023/07/05 07:18:11;;;;;;;5.88;3.88;;;26.90;99.90;;;;;;5050305;28;20037;-51
2023/07/05 07:20:37;;;;;;;7.35;3.58;;;26.60;99.90;;;;;;5043109;28;20053;-51
2023/07/05 07:23:02;;;;;;;6.72;3.67;;;26.90;99.90;;;;;;5031000;28;20045;-51
2023/07/05 07:25:28;;;;;;;7.25;3.60;;;27.10;99.90;;;;;;5048301;28;20041;-51
2023/07/05 07:27:54;;;;;;;9.07;3.95;;;27.20;99.90;;;;;;5048869;28;20037;-51
2023/07/05 07:30:20;;;;;;;5.63;3.53;;;27.30;99.90;;;;;;5043595;28;20473;-51
2023/07/05 07:32:46;;;;;;;6.78;4.00;;;27.40;99.90;;;;;;5046415;28;20229;-51
2023/07/05 07:35:12;;;;;;;9.27;4.10;;;27.70;99.90;;;;;;5047718;28;20056;-52
2023/07/05 07:37:38;;;;;;;6.70;3.88;;;27.70;99.90;;;;;;5050120;28;20025;-51
2023/07/05 07:40:06;;;;;;;7.55;4.68;;;27.70;99.90;;;;;;5047398;28;20116;-51
2023/07/05 07:42:32;;;;;;;6.53;3.95;;;27.50;99.90;;;;;;5046662;28;20049;-51
2023/07/05 07:44:58;;;;;;;8.65;4.45;;;;;;;;;;5027785;28;20025;-51
2023/07/05 07:47:24;;;;;;;8.10;4.15;;;;;;;;;;5027799;28;20036;-51
2023/07/05 07:49:51;;;;;;;6.18;3.78;;;;;;;;;;5032937;28;20041;-51
2023/07/05 07:52:18;;;;;;;6.70;4.45;;;;;;;;;;5030276;28;20037;-51
2023/07/05 07:54:44;;;;;;;9.98;4.47;;;;;;;;;;5032915;28;20053;-52
2023/07/05 07:57:10;;;;;;;6.85;4.30;;;;;;;;;;5047628;28;20044;-51
2023/07/05 07:59:41;;;;;;;6.68;4.10;;;;;;;;;;5032245;28;20029;-51
2023/07/05 08:02:16;;;;;;;6.50;4.13;;;;;;;;;;5031363;28;20469;-51
2023/07/05 08:04:44;;;;;;;8.27;4.18;;;;;;;;;;5028468;28;20049;-51
2023/07/05 08:07:10;;;;;;;5.75;3.95;;;;;;;;;;5031553;28;20040;-51
2023/07/05 08:09:36;;;;;;;7.03;3.85;;;;;;;;;;5033104;28;20116;-51
2023/07/05 08:12:02;;;;;;;6.57;4.20;;;;;;;;;;5029930;28;20033;-50
2023/07/05 08:14:28;;;;;;;6.57;4.03;;;;;;;;;;5031689;28;20041;-51
2023/07/05 08:16:54;;;;;;;7.00;3.85;;;;;;;;;;5031466;28;20018;-51
2023/07/05 08:19:21;;;;;;;7.43;3.85;;;;;;;;;;5030658;28;20030;-51
2023/07/05 08:21:47;;;;;;;10.18;4.50;;;28.40;99.90;;;;;;5032196;28;20491;-51
2023/07/05 08:24:14;;;;;;;7.88;4.18;;;28.60;99.90;;;;;;5032169;28;20140;-50
2023/07/05 08:26:41;;;;;;;9.35;4.13;;;28.60;99.90;;;;;;5032266;28;20061;-50
2023/07/05 08:29:08;;;;;;;9.27;4.15;;;;;;;;;;5080223;28;20037;-50
2023/07/05 08:31:34;;;;;;;6.88;3.90;;;;;;;;;;5064049;28;20404;-50
2023/07/05 08:34:01;;;;;;;9.43;3.92;;;;;;;;;;5046204;28;20531;-50
2023/07/05 08:36:28;;;;;;;9.05;3.97;;;;;;;;;;5032473;28;20037;-50
2023/07/05 08:38:57;;;;;;;7.82;3.63;;;29.80;99.90;;;;;;5032382;28;20041;-51
2023/07/05 08:41:46;;;;;;;9.73;4.22;;;29.60;99.90;;;;;;5033091;28;20018;-50
2023/07/05 08:44:42;;;;;;;7.57;3.78;;;;;;;;;;5047209;28;20044;-50
2023/07/05 08:47:08;;;;;;;7.68;3.95;;;;;;;;;;5062876;28;20077;-52
2023/07/05 08:49:40;;;;;;;5.32;3.70;;;;;;;;;;5024848;28;20056;-50
2023/07/05 08:52:11;;;;;;;6.85;3.85;;;;;;;;;;5048230;28;20376;-50
2023/07/05 08:54:38;;;;;;;8.68;4.15;;;;;;;;;;5026081;28;20063;-50
2023/07/05 08:57:06;;;;;;;10.63;4.53;;;;;;;;;;5031486;28;20033;-50
2023/07/05 09:00:00;;;;;;;8.50;4.20;;;30.60;99.90;;;;;;5046405;28;20061;-50
2023/07/05 09:02:27;;;;;;;7.28;3.67;;;;;;;;;;5009374;28;20061;-50
2023/07/05 09:04:55;;;;;;;7.97;4.07;;;;;;;;;;5004576;28;20085;-51
2023/07/05 09:07:34;;;;;;;8.63;3.85;;;;;;;;;;5010291;28;20556;-50
2023/07/05 09:10:07;;;;;;;10.45;4.05;;;;;;;;;;5009877;28;20038;-50
2023/07/05 09:12:39;;;;;;;10.52;4.35;;;;;;;;;;5009311;28;20038;-50
2023/07/05 09:15:26;;;;;;;7.88;3.88;;;;;;;;;;5007510;28;20133;-50
2023/07/05 09:17:52;;;;;;;6.32;3.80;;;;;;;;;;4978591;28;20073;-52
2023/07/05 09:20:24;;;;;;;6.97;4.00;;;;;;;;;;5009119;28;20038;-51
2023/07/05 09:22:51;;;;;;;6.30;4.03;;;;;;;;;;5009274;28;20112;-51
2023/07/05 09:25:19;;;;;;;9.80;4.35;;;;;;;;;;5009092;28;20089;-51
2023/07/05 09:27:50;;;;;;;9.65;4.07;;;;;;;;;;4977881;28;20050;-50
2023/07/05 09:30:26;;;;;;;6.88;3.92;;;;;;;;;;5009623;28;20034;-51
2023/07/05 09:33:12;;;;;;;6.93;3.92;;;;;;;;;;4997352;28;20096;-51
2023/07/05 09:35:41;;;;;;;5.55;3.80;;;;;;;;;;5008285;28;20050;-50
2023/07/05 09:38:25;;;;;;;8.55;3.85;;;;;;;;;;5009980;28;20026;-50
2023/07/05 09:40:55;;;;;;;7.10;3.70;;;;;;;;;;5032071;28;20033;-51
2023/07/05 09:43:31;;;;;;;5.85;3.33;;;;;;;;;;5031874;28;20037;-50
2023/07/05 09:46:00;;;;;;;9.93;3.58;;;;;;;;;;5029152;28;20108;-50
2023/07/05 09:48:27;;;;;;;7.80;3.85;;;;;;;;;;5042937;28;20586;-53
2023/07/05 09:50:53;;;;;;;6.90;4.28;;;;;;;;;;5037162;28;20038;-51
2023/07/05 09:53:22;;;;;;;7.15;4.00;;;;;;;;;;5030739;28;20040;-51
2023/07/05 09:56:30;;;;;;;7.10;4.22;;;;;;;;;;5025843;28;20142;-54
2023/07/05 09:59:10;;;;;;;6.55;4.60;;;31.80;99.90;;;;;;5009381;28;20046;-53
2023/07/05 10:01:39;;;;;;;5.90;4.18;;;;;;;;;;5014070;28;20045;-52
2023/07/05 10:04:05;;;;;;;5.97;3.95;;;32.20;99.90;;;;;;5024532;28;20022;-52
2023/07/05 10:06:31;;;;;;;11.73;3.88;;;32.50;99.90;;;;;;5018368;28;20041;-52
2023/07/05 10:09:04;;;;;;;8.02;4.40;;;32.90;99.90;;;;;;5019231;28;20421;-50
2023/07/05 10:11:33;;;;;;;6.82;4.05;;;33.00;99.90;;;;;;5013354;28;20069;-53
2023/07/05 10:14:04;;;;;;;7.82;4.18;;;;;;;;;;5014175;28;20112;-51
2023/07/05 10:16:48;;;;;;;6.97;3.72;;;;;;;;;;5013347;28;20473;-52
2023/07/05 10:19:21;;;;;;;7.97;4.28;;;;;;;;;;4998822;28;20045;-51
2023/07/05 10:21:52;;;;;;;5.88;3.88;;;;;;;;;;4994500;28;20038;-52
2023/07/05 10:24:19;;;;;;;6.57;3.85;;;33.40;99.90;;;;;;4995315;28;20042;-51
2023/07/05 10:26:49;;;;;;;9.32;4.40;;;33.50;99.90;;;;;;4977902;28;20042;-52
2023/07/05 10:29:20;;;;;;;9.30;4.95;;;33.60;99.90;;;;;;4999814;28;20076;-51
2023/07/05 10:31:54;;;;;;;9.20;4.90;;;33.70;99.90;;;;;;4989103;28;20034;-52
2023/07/05 10:34:23;;;;;;;7.15;4.40;;;34.00;99.90;;;;;;5012030;28;20505;-53
2023/07/05 10:36:49;;;;;;;8.07;4.80;;;33.70;99.90;;;;;;5030001;28;20064;-51
2023/07/05 10:39:23;;;;;;;7.63;5.32;;;33.70;99.90;;;;;;5031005;28;20041;-52
2023/07/05 10:41:53;;;;;;;8.20;4.85;;;;;;;;;;5030872;28;20456;-52
2023/07/05 10:44:24;;;;;;;8.30;4.65;;;32.70;99.90;;;;;;5015752;28;20114;-53
2023/07/05 10:46:50;;;;;;;;;;;33.20;99.90;;;;;;5016691;28;20501;-51
2023/07/05 10:49:17;;;;;;;7.03;5.00;;;;;;;;;;5032626;28;19909;-52
2023/07/05 10:51:55;;;;;;;9.18;5.30;;;33.80;99.90;;;;;;5032758;28;20522;-52
2023/07/05 10:54:41;;;;;;;9.65;5.00;;;34.00;99.90;;;;;;5051015;28;20036;-51
2023/07/05 10:57:33;;;;;;;6.53;4.45;;;33.60;99.90;;;;;;5048905;28;20041;-51
2023/07/05 11:00:22;;;;;;;9.07;5.10;;;33.80;99.90;;;;;;5033804;28;20046;-51
2023/07/05 11:02:59;;;;;;;7.57;5.18;;;33.70;99.90;;;;;;5004193;28;20037;-53
2023/07/05 11:05:32;;;;;;;8.95;5.25;;;33.70;99.90;;;;;;5029036;28;20044;-51
2023/07/05 11:08:01;;;;;;;9.88;5.00;;;33.30;99.90;;;;;;4999878;28;20103;-52
2023/07/05 11:10:32;;;;;;;10.35;4.78;;;33.30;99.90;;;;;;5032468;28;20454;-50
2023/07/05 11:12:58;;;;;;;10.05;4.78;;;;;;;;;;5032627;28;20046;-51
2023/07/05 11:15:24;;;;;;;10.32;6.07;;;;;;;;;;5028833;28;20045;-51
2023/07/05 11:17:50;;;;;;;6.40;4.55;;;31.90;99.90;;;;;;5032476;28;20072;-53
2023/07/05 11:20:35;;;;;;;9.68;4.47;;;;;;;;;;5001355;28;20042;-51
2023/07/05 11:23:01;;;;;;;7.22;5.00;;;31.70;99.90;;;;;;5031535;28;20045;-50
2023/07/05 11:25:52;;;;;;;7.25;5.03;;;31.60;99.90;;;;;;5032426;28;20099;-51
2023/07/05 11:28:30;;;;;;;6.38;4.70;;;;;;;;;;4992558;28;20108;-51
2023/07/05 11:30:56;;;;;;;7.18;5.43;;;;;;;;;;4990909;28;20536;-51
2023/07/05 11:33:23;;;;;;;11.88;5.50;;;;;;;;;;4975599;28;20777;-52
2023/07/05 11:35:58;;;;;;;6.93;4.72;;;33.50;99.90;;;;;;4991695;28;20505;-52
2023/07/05 11:38:40;;;;;;;7.00;5.40;;;34.00;99.90;;;;;;4984003;28;20137;-51
2023/07/05 11:41:09;;;;;;;16.02;6.45;;;34.00;99.90;;;;;;4992335;28;20073;-53
2023/07/05 11:43:44;;;;;;;8.90;5.18;;;34.30;99.90;;;;;;4992047;28;20137;-52
2023/07/05 11:46:44;;;;;;;7.20;4.90;;;34.80;99.90;;;;;;4991527;28;20042;-52
2023/07/05 11:49:25;;;;;;;9.50;5.63;;;34.70;99.90;;;;;;4992031;28;20595;-50
2023/07/05 11:51:58;;;;;;;8.57;5.45;;;34.20;99.90;;;;;;4991676;28;20034;-52
2023/07/05 11:54:32;;;;;;;7.20;5.18;;;34.10;99.90;;;;;;4975752;28;20069;-52
2023/07/05 11:57:01;;;;;;;8.90;5.25;;;33.40;99.90;;;;;;4989265;28;20070;-53
2023/07/05 11:59:32;;;;;;;17.25;10.88;;;33.20;99.90;;;;;;4992174;28;20034;-52
2023/07/05 12:02:04;;;;;;;8.82;6.05;;;33.40;99.90;;;;;;4958320;28;20038;-50
2023/07/05 12:04:32;;;;;;;13.38;8.90;;;33.50;99.90;;;;;;4995798;28;20053;-52
2023/07/05 12:06:58;;;;;;;10.38;6.32;;;33.20;99.90;;;;;;5030717;28;20090;-53
2023/07/05 12:09:32;;;;;;;12.02;6.93;;;33.10;99.90;;;;;;5033144;28;20042;-52
2023/07/05 12:11:58;;;;;;;9.82;5.40;;;33.00;99.90;;;;;;5028809;28;20044;-52
2023/07/05 12:14:24;;;;;;;7.57;5.38;;;33.10;99.90;;;;;;5027099;28;20029;-51
2023/07/05 12:16:52;;;;;;;7.53;5.45;;;33.40;99.90;;;;;;5045993;28;20049;-53
2023/07/05 12:19:27;;;;;;;7.10;5.07;;;33.70;99.90;;;;;;5031132;28;20033;-52
2023/07/05 12:21:55;;;;;;;7.72;5.60;;;34.10;99.90;;;;;;5030389;28;20040;-51
2023/07/05 12:24:21;;;;;;;7.65;5.38;;;34.40;99.90;;;;;;5032762;28;20429;-49
2023/07/05 12:26:47;;;;;;;9.32;5.38;;;34.90;99.90;;;;;;5032846;28;20044;-50
2023/07/05 12:29:28;;;;;;;9.02;6.07;;;35.30;99.90;;;;;;5025634;28;20037;-52
2023/07/05 12:32:15;;;;;;;8.83;5.57;;;35.30;99.90;;;;;;5031607;28;20077;-52
2023/07/05 12:34:41;;;;;;;7.80;5.97;;;34.00;99.90;;;;;;5029530;28;20045;-51
2023/07/05 12:37:08;;;;;;;7.13;5.18;;;34.30;99.90;;;;;;5029583;28;20041;-51
2023/07/05 12:39:34;;;;;;;9.25;6.00;;;34.80;99.90;;;;;;5031348;28;20033;-52
2023/07/05 12:42:09;;;;;;;8.50;5.88;;;35.30;99.90;;;;;;5028466;28;20052;-52
2023/07/05 12:44:35;;;;;;;8.00;5.75;;;35.50;99.90;;;;;;5014708;28;20124;-51
2023/07/05 12:47:17;;;;;;;7.80;5.95;;;35.90;99.90;;;;;;5027494;28;20064;-50
2023/07/05 12:49:44;;;;;;;7.78;6.10;;;;;;;;;;5029229;28;20033;-49
2023/07/05 12:52:21;;;;;;;9.68;5.82;;;;;;;;;;5040327;28;20037;-49
2023/07/05 12:54:47;;;;;;;6.95;5.55;;;;;;;;;;5060352;28;20037;-49
2023/07/05 12:57:21;;;;;;;8.38;6.60;;;36.10;99.90;;;;;;5029971;28;20036;-50
2023/07/05 12:59:48;;;;;;;7.38;5.47;;;36.10;99.90;;;;;;5031868;28;20083;-54
2023/07/05 13:02:28;;;;;;;9.23;6.35;;;34.80;99.90;;;;;;5031484;28;20086;-55
2023/07/05 13:04:57;;;;;;;6.47;5.65;;;35.00;99.10;;;;;;5031678;28;20037;-61
2023/07/05 13:07:25;;;;;;;10.98;6.22;;;34.00;99.20;;;;;;5032488;28;20029;-51
2023/07/05 13:09:54;;;;;;;6.78;5.90;;;34.80;99.70;;;;;;5031677;28;20488;-53
2023/07/05 13:12:20;;;;;;;7.57;6.10;;;34.60;99.20;;;;;;5030254;28;20119;-51
2023/07/05 13:15:05;;;;;;;7.60;6.15;;;35.40;99.30;;;;;;5029900;28;20107;-54
2023/07/05 13:34:13;;;;;;;7.00;5.80;;;35.60;99.00;;;;;;5108492;27;1301202;-53
2023/07/05 13:36:38;;;;;;;8.80;6.32;;;36.20;98.40;;;;;;5137302;27;20110;-53
2023/07/05 13:39:04;;;;;;;10.38;7.03;;;35.80;99.90;;;;;;5139439;27;20055;-51